• Join FlightAware (Why Join?)
  • Login
  • US Flag 
03:05AM EDT


 

Airport Tracker/Info


-or-


 

Live Flight TrackerFlight Track Log ✈ N528QS ✈ 13-Aug-2013 ✈ KTEB - KBED

Flight Track Log - Related Links

Times and Time Zones

All times are in EDT time to prevent confusion due to time zone crossing. See the N528QS flight status page for this flight to view local times or setup timezone preferences in your user account.

Time Position Orientation Groundspeed Altitude Reporting Facility
EDT Latitude Longitude Course Direction KTS MPH feet Rate Location/Type
09:37AM 41.4657 -73.0371 51° Northeast  Level Estimated
09:38AM 41.5127 -72.9575 52° Northeast  Level Estimated
09:39AM 41.5596 -72.8778 52° Northeast  Level Estimated
09:40AM 41.6064 -72.7981 52° Northeast  Level Estimated
09:41AM 41.6533 -72.7182 52° Northeast  Level Estimated
09:42AM 41.7000 -72.6381 52° Northeast  Level Estimated
09:43AM 41.7467 -72.5580 52° Northeast  Level Estimated
09:44AM 41.7933 -72.4778 52° Northeast  Level Estimated
09:45AM 41.8399 -72.3974 52° Northeast  Level Estimated
09:46AM 41.8865 -72.3169 52° Northeast  Level Estimated
09:47AM 41.9337 -72.2350 52° Northeast  Level Estimated
09:48AM 41.9809 -72.1529 52° Northeast  Level Estimated
09:49AM 42.0289 -72.0691 52° Northeast  Level Estimated
09:50AM 42.0769 -71.9852 52° Northeast  Level Estimated
09:51AM 42.1249 -71.9012 52° Northeast  Level Estimated
09:52AM 42.1727 -71.8170 52° Northeast  Level Estimated
09:53AM 42.2206 -71.7326 53° Northeast  Level Estimated
09:54AM 42.2684 -71.6480 53° Northeast  Level Estimated
09:55AM 42.3162 -71.5633 53° Northeast  Level Estimated
09:56AM 42.3639 -71.4785 53° Northeast  Level Estimated
09:57AM 42.4115 -71.3935 53° Northeast  Level Estimated
09:58AM 42.4591 -71.3084 53° Northeast  Level Estimated
09:59AM 42.4699 -71.2890 53° Northeast  Level Estimated
10:00AM 42.4699 -71.2890 North  Level Estimated
10:01AM 42.4699 -71.2890 North  Level Estimated